Time;durP1;ratioP1;P1;durP2;ratioP2;P2;SDS_P1;SDS_P2;PMS_P1;PMS_P2;Temp;Humidity;BMP_temperature;BMP_pressure;BME280_temperature;BME280_humidity;BME280_pressure;Samples;Min_cycle;Max_cycle;Signal;HPM_P1;HPM_P2
2023/01/10 00:02:11;;;;;;;8.95;1.45;;;;;;;;;;4930857;28;23227;-65
2023/01/10 00:04:37;;;;;;;;;;;;;;;;;;4933351;28;20039;-65
2023/01/10 00:07:03;;;;;;;8.18;1.75;;;;;;;;;;4927968;28;19910;-64
2023/01/10 00:09:29;;;;;;;8.38;1.48;;;;;;;;;;4936938;28;20679;-64
2023/01/10 00:14:40;;;;;;;8.45;1.92;;;;;;;;;;4927387;28;20027;-64
2023/01/10 00:17:06;;;;;;;9.38;2.05;;;;;;;;;;4927371;28;20477;-65
2023/01/10 00:19:32;;;;;;;9.45;1.95;;;;;;;;;;4928725;28;20441;-65
2023/01/10 00:22:06;;;;;;;7.97;2.03;;;;;;;;;;4929026;28;20356;-65
2023/01/10 00:24:32;;;;;;;9.50;2.03;;;;;;;;;;4927136;28;20054;-65
2023/01/10 00:26:58;;;;;;;9.05;2.40;;;;;;;;;;4943499;28;20114;-65
2023/01/10 00:29:26;;;;;;;8.73;1.95;;;;;;;;;;4933939;28;20346;-64
2023/01/10 00:31:53;;;;;;;6.68;1.73;;;;;;;;;;4928255;28;20049;-64
2023/01/10 00:34:19;;;;;;;;;;;;;;;;;;4937731;28;20536;-63
2023/01/10 00:36:46;;;;;;;6.82;1.92;;;;;;;;;;4932808;28;19969;-63
2023/01/10 00:39:13;;;;;;;7.25;2.00;;;;;;;;;;4933555;28;20507;-64
2023/01/10 00:44:25;;;;;;;8.38;2.00;;;;;;;;;;4933514;28;20037;-68
2023/01/10 00:46:51;;;;;;;;;;;;;;;;;;4930207;28;20576;-67
2023/01/10 00:49:17;;;;;;;11.82;1.83;;;;;;;;;;4934034;28;19926;-66
2023/01/10 00:51:44;;;;;;;7.85;1.88;;;;;;;;;;4931631;28;20033;-67
2023/01/10 00:54:17;;;;;;;7.90;1.95;;;;;;;;;;4934906;28;20023;-68
2023/01/10 00:56:43;;;;;;;7.78;1.75;;;;;;;;;;4935203;28;20026;-67
2023/01/10 00:59:09;;;;;;;;;;;;;;;;;;4935163;28;20517;-67
2023/01/10 01:01:36;;;;;;;8.43;2.00;;;;;;;;;;4936453;28;20123;-67
2023/01/10 01:04:05;;;;;;;7.45;1.75;;;;;;;;;;4935838;28;20034;-66
2023/01/10 01:06:32;;;;;;;5.85;1.50;;;;;;;;;;4930770;28;20035;-67
2023/01/10 01:08:58;;;;;;;6.95;1.65;;;;;;;;;;4931654;28;20488;-67
2023/01/10 01:11:26;;;;;;;6.43;1.70;;;;;;;;;;4937457;28;20050;-67
2023/01/10 01:13:52;;;;;;;8.55;1.60;;;;;;;;;;4929428;28;20263;-67
2023/01/10 01:16:19;;;;;;;6.40;1.80;;;;;;;;;;4930024;28;20284;-67
2023/01/10 01:18:45;;;;;;;9.40;1.90;;;;;;;;;;4940897;28;20046;-67
2023/01/10 01:21:11;;;;;;;8.00;1.50;;;;;;;;;;4926619;28;20109;-67
2023/01/10 01:23:37;;;;;;;6.95;1.70;;;;;;;;;;4928478;28;20042;-66
2023/01/10 01:26:05;;;;;;;9.10;1.83;;;;;;;;;;4932311;28;20069;-66
2023/01/10 01:28:31;;;;;;;6.25;1.40;;;;;;;;;;4944683;28;20111;-66
2023/01/10 01:30:57;;;;;;;6.30;1.58;;;;;;;;;;4944241;28;20033;-67
2023/01/10 01:33:23;;;;;;;7.57;1.60;;;;;;;;;;4927583;28;20031;-67
2023/01/10 01:35:50;;;;;;;6.88;1.42;;;;;;;;;;4943838;28;20635;-66
2023/01/10 01:38:17;;;;;;;8.30;1.60;;;;;;;;;;4934485;28;20026;-67
2023/01/10 01:40:43;;;;;;;6.45;1.40;;;;;;;;;;4935676;28;20034;-66
2023/01/10 01:43:30;;;;;;;5.95;1.30;;;;;;;;;;4927100;28;20054;-68
2023/01/10 01:45:59;;;;;;;5.38;1.30;;;;;;;;;;4924880;28;20035;-68
2023/01/10 01:48:37;;;;;;;9.77;1.55;;;;;;;;;;4947147;28;20041;-68
2023/01/10 01:51:16;;;;;;;9.73;1.63;;;;;;;;;;4929700;28;20347;-68
2023/01/10 01:53:44;;;;;;;5.53;1.45;;;;;;;;;;4928826;28;20088;-68
2023/01/10 01:56:18;;;;;;;9.20;1.50;;;;;;;;;;4928741;28;22197;-68
2023/01/10 01:58:50;;;;;;;7.90;1.38;;;;;;;;;;4948666;28;20030;-68
2023/01/10 02:01:17;;;;;;;9.13;1.70;;;;;;;;;;4930946;28;20038;-68
2023/01/10 02:03:45;;;;;;;7.32;1.60;;;;;;;;;;4932616;28;20361;-68
2023/01/10 02:06:12;;;;;;;9.00;1.60;;;;;;;;;;4930478;28;20031;-68
2023/01/10 02:08:44;;;;;;;6.28;1.52;;;;;;;;;;4927956;28;20026;-68
2023/01/10 02:11:10;;;;;;;6.07;1.27;;;;;;;;;;4923696;28;20109;-68
2023/01/10 02:13:36;;;;;;;;;;;;;;;;;;4931214;28;20529;-68
2023/01/10 02:16:02;;;;;;;9.35;1.58;;;;;;;;;;4927437;28;20175;-67
2023/01/10 02:18:29;;;;;;;7.53;1.45;;;;;;;;;;4930199;28;20030;-67
2023/01/10 02:21:07;;;;;;;8.13;1.58;;;;;;;;;;4924914;28;20057;-67
2023/01/10 02:23:36;;;;;;;6.40;1.30;;;;;;;;;;4930417;28;20187;-67
2023/01/10 02:26:17;;;;;;;5.78;1.30;;;;;;;;;;4929709;28;20552;-67
2023/01/10 02:28:46;;;;;;;6.70;1.33;;;;;;;;;;4929859;28;20714;-68
2023/01/10 02:31:33;;;;;;;5.90;1.15;;;;;;;;;;4929255;28;20261;-67
2023/01/10 02:34:18;;;;;;;6.32;1.20;;;;;;;;;;4926787;28;20213;-67
2023/01/10 02:36:51;;;;;;;8.52;1.40;;;;;;;;;;4928254;28;20109;-67
2023/01/10 02:39:17;;;;;;;7.63;1.50;;;;;;;;;;4946271;28;20154;-67
2023/01/10 02:41:52;;;;;;;7.85;1.40;;;;;;;;;;4940886;28;20501;-67
2023/01/10 02:44:21;;;;;;;4.95;1.25;;;;;;;;;;4928320;28;20117;-67
2023/01/10 02:46:48;;;;;;;6.28;1.50;;;;;;;;;;4927758;28;20047;-67
2023/01/10 02:49:14;;;;;;;6.65;1.30;;;;;;;;;;4929162;28;20046;-67
2023/01/10 02:51:41;;;;;;;7.25;1.60;;;;;;;;;;4927094;28;20035;-67
2023/01/10 02:54:10;;;;;;;8.10;1.50;;;;;;;;;;4929675;28;20124;-67
2023/01/10 02:56:43;;;;;;;6.80;1.42;;;;;;;;;;4946216;28;20457;-67
2023/01/10 02:59:28;;;;;;;7.75;1.35;;;;;;;;;;4930400;28;20041;-67
2023/01/10 03:02:00;;;;;;;8.75;1.42;;;;;;;;;;4928803;28;20094;-67
2023/01/10 03:04:26;;;;;;;6.93;1.30;;;;;;;;;;4933323;28;20043;-67
2023/01/10 03:07:05;;;;;;;14.45;1.80;;;;;;;;;;4928870;28;20365;-66
2023/01/10 03:10:00;;;;;;;9.43;1.70;;;;;;;;;;4933438;28;20039;-66
2023/01/10 03:12:42;;;;;;;7.80;1.67;;;;;;;;;;4929130;28;20075;-67
2023/01/10 03:15:10;;;;;;;9.23;1.40;;;;;;;;;;4926785;28;20257;-68
2023/01/10 03:17:37;;;;;;;6.22;1.45;;;;;;;;;;4934867;28;20511;-68
2023/01/10 03:20:04;;;;;;;10.07;1.73;;;;;;;;;;4928765;28;20254;-68
2023/01/10 03:22:32;;;;;;;10.32;1.60;;;;;;;;;;4933444;28;20105;-68
2023/01/10 03:25:00;;;;;;;7.82;1.40;;;;;;;;;;4930989;28;20049;-68
2023/01/10 03:27:50;;;;;;;6.80;1.50;;;;;;;;;;4935310;28;20539;-68
2023/01/10 03:30:31;;;;;;;10.52;2.00;;;;;;;;;;4934561;28;20422;-68
2023/01/10 03:32:58;;;;;;;8.43;1.45;;;;;;;;;;4930222;28;20045;-68
2023/01/10 03:35:45;;;;;;;7.78;1.40;;;;;;;;;;4933555;28;20133;-68
2023/01/10 03:38:34;;;;;;;6.10;1.30;;;;;;;;;;4932512;28;20030;-68
2023/01/10 03:41:07;;;;;;;8.38;1.63;;;;;;;;;;4930111;28;20039;-68
2023/01/10 03:46:37;;;;;;;8.63;1.50;;;;;;;;;;4936251;28;20071;-67
2023/01/10 03:49:04;;;;;;;7.50;1.50;;;;;;;;;;4933217;28;20035;-67
2023/01/10 03:51:31;;;;;;;8.13;1.77;;;;;;;;;;4937436;28;20062;-69
2023/01/10 03:53:57;;;;;;;;;;;;;;;;;;4932694;28;20337;-64
2023/01/10 03:56:23;;;;;;;10.45;1.77;;;;;;;;;;4934496;28;19929;-65
2023/01/10 03:58:49;;;;;;;9.77;1.55;;;;;;;;;;4932986;28;20114;-65
2023/01/10 04:01:16;;;;;;;9.27;1.52;;;;;;;;;;4931838;28;20031;-65
2023/01/10 04:03:42;;;;;;;11.77;1.70;;;;;;;;;;4930813;28;20039;-65
2023/01/10 04:06:08;;;;;;;7.65;1.60;;;;;;;;;;4931226;28;20648;-65
2023/01/10 04:08:34;;;;;;;8.25;1.63;;;;;;;;;;4931925;28;20082;-65
2023/01/10 04:11:00;;;;;;;9.23;1.83;;;;;;;;;;4929422;28;20038;-65
2023/01/10 04:13:27;;;;;;;7.40;1.55;;;;;;;;;;4933492;28;20497;-65
2023/01/10 04:15:53;;;;;;;9.15;1.70;;;;;;;;;;4930504;28;20039;-65
2023/01/10 04:18:19;;;;;;;7.57;1.75;;;;;;;;;;4948926;28;20031;-65
2023/01/10 04:20:45;;;;;;;12.15;1.88;;;;;;;;;;4934108;28;20216;-65
2023/01/10 04:23:11;;;;;;;10.43;2.00;;;;;;;;;;4932444;28;20046;-65
2023/01/10 04:25:37;;;;;;;8.02;1.50;;;;;;;;;;4929108;28;20041;-65
2023/01/10 04:28:04;;;;;;;10.65;1.75;;;;;;;;;;4932549;28;20685;-65
2023/01/10 04:30:30;;;;;;;11.18;1.50;;;;;;;;;;4932192;28;20046;-65
2023/01/10 04:32:56;;;;;;;9.57;2.13;;;;;;;;;;4933271;28;20331;-65
2023/01/10 04:35:22;;;;;;;8.10;1.55;;;;;;;;;;4935546;28;20749;-65
2023/01/10 04:37:48;;;;;;;9.20;1.83;;;;;;;;;;4933529;28;20027;-65
2023/01/10 04:40:18;;;;;;;8.45;2.00;;;;;;;;;;4930801;28;20457;-64
2023/01/10 04:42:44;;;;;;;10.15;1.80;;;;;;;;;;4935006;28;20630;-64
2023/01/10 04:45:12;;;;;;;11.88;2.15;;;;;;;;;;4928921;28;20035;-64
2023/01/10 04:47:38;;;;;;;9.30;1.60;;;;;;;;;;4948896;28;20223;-64
2023/01/10 04:50:04;;;;;;;10.40;1.80;;;;;;;;;;4932422;28;20443;-64
2023/01/10 04:52:31;;;;;;;8.57;1.63;;;;;;;;;;4931813;28;20031;-64
2023/01/10 04:54:57;;;;;;;9.52;1.67;;;;;;;;;;4928310;28;20038;-64
2023/01/10 04:57:23;;;;;;;9.05;1.70;;;;;;;;;;4931845;28;20019;-64
2023/01/10 04:59:49;;;;;;;8.95;1.83;;;;;;;;;;4935296;28;20481;-64
2023/01/10 05:02:15;;;;;;;10.43;2.00;;;;;;;;;;4929992;28;20684;-64
2023/01/10 05:04:41;;;;;;;10.95;1.90;;;;;;;;;;4934175;28;20090;-64
2023/01/10 05:07:07;;;;;;;8.85;1.83;;;;;;;;;;4929133;28;20424;-64
2023/01/10 05:09:34;;;;;;;6.97;1.58;;;;;;;;;;4932511;28;20554;-64
2023/01/10 05:12:00;;;;;;;9.52;1.55;;;;;;;;;;4931653;28;20035;-64
2023/01/10 05:14:26;;;;;;;6.00;1.65;;;;;;;;;;4935037;28;20259;-64
2023/01/10 05:16:52;;;;;;;9.77;2.15;;;;;;;;;;4925893;28;20039;-65
2023/01/10 05:19:18;;;;;;;10.75;1.75;;;;;;;;;;4934691;28;20793;-64
2023/01/10 05:21:44;;;;;;;9.43;1.92;;;;;;;;;;4931771;28;20465;-64
2023/01/10 05:24:11;;;;;;;9.85;2.00;;;;;;;;;;4928985;28;22159;-64
2023/01/10 05:26:37;;;;;;;9.18;2.10;;;;;;;;;;4929478;28;20133;-64
2023/01/10 05:29:03;;;;;;;8.07;2.03;;;;;;;;;;4931803;28;20233;-64
2023/01/10 05:31:29;;;;;;;9.68;2.20;;;;;;;;;;4931883;28;20549;-65
2023/01/10 05:33:55;;;;;;;9.68;1.92;;;;;;;;;;4929954;28;20449;-64
2023/01/10 05:36:21;;;;;;;8.75;1.92;;;;;;;;;;4932600;28;20421;-64
2023/01/10 05:38:47;;;;;;;12.25;2.20;;;;;;;;;;4942488;28;20391;-64
2023/01/10 05:41:14;;;;;;;9.23;1.85;;;;;;;;;;4938667;28;20069;-64
2023/01/10 05:43:40;;;;;;;10.57;2.00;;;;;;;;;;4927816;28;20027;-64
2023/01/10 05:46:06;;;;;;;7.57;1.70;;;;;;;;;;4923411;28;20340;-64
2023/01/10 05:48:32;;;;;;;;;;;;;;;;;;4932323;28;20039;-64
2023/01/10 05:50:58;;;;;;;10.15;2.05;;;;;;;;;;4928528;28;19952;-64
2023/01/10 05:53:25;;;;;;;13.00;4.15;;;;;;;;;;4930144;28;20528;-64
2023/01/10 05:55:55;;;;;;;15.43;4.93;;;;;;;;;;4931353;28;20077;-64
2023/01/10 05:58:21;;;;;;;17.10;6.35;;;;;;;;;;4950743;28;20100;-65
2023/01/10 06:00:47;;;;;;;10.25;2.65;;;;;;;;;;4933741;28;20022;-65
2023/01/10 06:03:14;;;;;;;11.73;2.75;;;;;;;;;;4929976;28;20034;-65
2023/01/10 06:05:40;;;;;;;11.00;2.25;;;;;;;;;;4931305;28;20040;-65
2023/01/10 06:08:06;;;;;;;13.60;2.20;;;;;;;;;;4927851;28;20049;-64
2023/01/10 06:10:32;;;;;;;8.80;1.70;;;;;;;;;;4935088;28;20282;-65
2023/01/10 06:12:58;;;;;;;9.18;1.70;;;;;;;;;;4940045;28;20137;-65
2023/01/10 06:15:25;;;;;;;13.27;2.75;;;;;;;;;;4946282;28;20564;-64
2023/01/10 06:17:51;;;;;;;9.57;2.10;;;;;;;;;;4931726;28;20603;-65
2023/01/10 06:20:18;;;;;;;9.50;2.33;;;;;;;;;;4931081;28;20469;-65
2023/01/10 06:22:44;;;;;;;11.82;2.05;;;;;;;;;;4931762;28;20824;-64
2023/01/10 06:25:11;;;;;;;7.82;1.70;;;;;;;;;;4929443;28;20521;-65
2023/01/10 06:27:41;;;;;;;10.15;2.00;;;;;;;;;;4931886;28;20336;-65
2023/01/10 06:30:08;;;;;;;8.32;2.03;;;;;;;;;;4925936;28;20505;-65
2023/01/10 06:32:35;;;;;;;8.85;1.95;;;;;;;;;;4933689;28;20122;-66
2023/01/10 06:35:01;;;;;;;12.32;2.33;;;;;;;;;;4925943;28;20047;-65
2023/01/10 06:37:27;;;;;;;15.10;3.05;;;;;;;;;;4932622;28;20358;-66
2023/01/10 06:39:53;;;;;;;14.02;2.45;;;;;;;;;;4940708;28;20434;-65
2023/01/10 06:42:19;;;;;;;17.10;2.63;;;;;;;;;;4941301;28;20090;-66
2023/01/10 06:44:45;;;;;;;10.13;2.20;;;;;;;;;;4926207;28;20039;-66
2023/01/10 06:47:12;;;;;;;11.82;2.50;;;;;;;;;;4926621;28;20408;-66
2023/01/10 06:49:38;;;;;;;10.13;2.33;;;;;;;;;;4927450;28;20039;-64
2023/01/10 06:52:04;;;;;;;11.15;2.45;;;;;;;;;;4939744;28;20705;-64
2023/01/10 06:54:30;;;;;;;9.95;2.28;;;;;;;;;;4933593;28;20463;-65
2023/01/10 06:56:56;;;;;;;9.60;1.90;;;;;;;;;;4928148;28;20032;-64
2023/01/10 06:59:22;;;;;;;12.38;2.33;;;;;;;;;;4934749;28;20066;-63
2023/01/10 07:01:48;;;;;;;10.60;2.28;;;;;;;;;;4935620;28;20054;-63
2023/01/10 07:04:15;;;;;;;9.40;2.45;;;;;;;;;;4930620;28;20121;-63
2023/01/10 07:06:41;;;;;;;12.10;3.17;;;;;;;;;;4932963;28;20031;-64
2023/01/10 07:09:08;;;;;;;14.15;3.60;;;;;;;;;;4932589;28;20584;-64
2023/01/10 07:11:34;;;;;;;15.13;3.70;;;;;;;;;;4936500;28;20429;-63
2023/01/10 07:14:00;;;;;;;;;;;;;;;;;;4932442;28;20034;-64
2023/01/10 07:16:27;;;;;;;13.52;4.07;;;;;;;;;;4930523;28;19953;-64
2023/01/10 07:18:53;;;;;;;;;;;;;;;;;;4931094;28;20118;-64
2023/01/10 07:21:19;;;;;;;13.60;3.97;;;;;;;;;;4934752;28;20040;-64
2023/01/10 07:23:49;;;;;;;13.38;3.53;;;;;;;;;;4937823;28;20027;-64
2023/01/10 07:26:16;;;;;;;13.98;3.78;;;;;;;;;;4944350;28;20035;-64
2023/01/10 07:28:43;;;;;;;12.77;3.90;;;;;;;;;;4933761;28;20457;-64
2023/01/10 07:31:10;;;;;;;12.80;3.60;;;;;;;;;;4930883;28;20890;-64
2023/01/10 07:33:36;;;;;;;11.27;3.22;;;;;;;;;;4935640;28;20102;-64
2023/01/10 07:36:02;;;;;;;12.40;2.70;;;;;;;;;;4926891;28;20113;-68
2023/01/10 07:38:29;;;;;;;12.77;2.50;;;;;;;;;;4934689;28;20047;-64
2023/01/10 07:40:55;;;;;;;;;;;;;;;;;;4930017;28;20063;-64
2023/01/10 07:43:21;;;;;;;11.82;2.55;;;;;;;;;;4932227;28;19967;-64
2023/01/10 07:45:47;;;;;;;12.90;2.80;;;;;;;;;;4930780;28;20762;-64
2023/01/10 07:48:13;;;;;;;10.93;2.30;;;;;;;;;;4927119;28;20058;-64
2023/01/10 07:50:40;;;;;;;10.13;2.45;;;;;;;;;;4929044;28;20141;-64
2023/01/10 07:53:07;;;;;;;12.18;3.00;;;;;;;;;;4926480;28;20434;-64
2023/01/10 07:55:35;;;;;;;11.40;2.75;;;;;;;;;;4926308;28;20046;-64
2023/01/10 07:58:01;;;;;;;13.10;3.08;;;;;;;;;;4928816;28;20031;-64
2023/01/10 08:00:27;;;;;;;13.00;2.88;;;;;;;;;;4933399;28;20561;-64
2023/01/10 08:02:54;;;;;;;11.20;2.90;;;;;;;;;;4923888;28;20444;-64
2023/01/10 08:05:20;;;;;;;12.63;3.20;;;;;;;;;;4916396;28;20062;-64
2023/01/10 08:07:47;;;;;;;12.43;3.42;;;;;;;;;;4927880;28;20467;-65
2023/01/10 08:10:13;;;;;;;9.73;2.63;;;;;;;;;;4929227;28;20067;-65
2023/01/10 08:12:39;;;;;;;10.10;2.97;;;;;;;;;;4924761;28;20421;-63
2023/01/10 08:15:06;;;;;;;11.75;2.90;;;;;;;;;;4925085;28;20767;-66
2023/01/10 08:17:32;;;;;;;7.43;2.03;;;;;;;;;;4937671;28;20035;-65
2023/01/10 08:19:59;;;;;;;9.93;2.70;;;;;;;;;;4928800;28;20046;-65
2023/01/10 08:22:25;;;;;;;10.30;2.90;;;;;;;;;;4934920;28;20058;-65
2023/01/10 08:24:51;;;;;;;8.40;2.33;;;;;;;;;;4940026;28;20572;-66
2023/01/10 08:27:18;;;;;;;12.93;2.20;;;;;;;;;;4931529;28;20034;-65
2023/01/10 08:29:44;;;;;;;10.77;2.30;;;;;;;;;;4931114;28;20373;-65
2023/01/10 08:32:10;;;;;;;11.02;2.17;;;;;;;;;;4928383;28;20035;-65
2023/01/10 08:34:36;;;;;;;15.13;2.47;;;;;;;;;;4927891;28;20492;-65
2023/01/10 08:37:03;;;;;;;9.95;2.70;;;;;;;;;;4929381;28;20043;-65
2023/01/10 08:39:29;;;;;;;9.30;2.17;;;;;;;;;;4932264;28;20057;-65
2023/01/10 08:41:56;;;;;;;12.93;2.60;;;;;;;;;;4922469;28;20141;-65
2023/01/10 08:44:22;;;;;;;9.88;2.55;;;;;;;;;;4928072;28;20042;-65
2023/01/10 08:46:48;;;;;;;;;;;;;;;;;;4918259;28;20046;-65
2023/01/10 08:49:14;;;;;;;11.70;3.38;;;;;;;;;;4923389;28;20261;-65
2023/01/10 08:51:40;;;;;;;;;;;;;;;;;;4925200;28;20880;-65
2023/01/10 08:54:07;;;;;;;15.32;3.67;;;;;;;;;;4906849;28;19914;-65
2023/01/10 08:56:35;;;;;;;;;;;;;;;;;;4913376;28;20215;-65
2023/01/10 08:59:01;;;;;;;11.90;3.00;;;;;;;;;;4932237;28;20686;-65
2023/01/10 09:01:27;;;;;;;;;;;;;;;;;;4915520;28;20034;-65
2023/01/10 09:03:53;;;;;;;11.43;2.17;;;;;;;;;;4937898;28;19961;-65
2023/01/10 09:06:19;;;;;;;8.43;2.13;;;;;;;;;;4923858;28;20126;-65
2023/01/10 09:08:45;;;;;;;10.63;2.40;;;;;;;;;;4927566;28;20033;-65
2023/01/10 09:11:11;;;;;;;;;;;;;;;;;;4941666;28;21250;-65
2023/01/10 09:13:39;;;;;;;10.32;2.10;;;;;;;;;;4932902;28;20369;-65
2023/01/10 09:16:05;;;;;;;9.50;1.92;;;;;;;;;;4934440;28;20700;-65
2023/01/10 09:18:32;;;;;;;11.23;2.60;;;;;;;;;;4929033;28;20030;-65
2023/01/10 09:20:59;;;;;;;10.40;2.08;;;;;;;;;;4926661;28;20092;-65
2023/01/10 09:23:25;;;;;;;8.43;1.75;;;;;;;;;;4930993;28;20040;-65
2023/01/10 09:25:51;;;;;;;;;;;;;;;;;;4928140;28;20039;-65
2023/01/10 09:28:17;;;;;;;10.15;1.60;;;;;;;;;;4929738;28;19952;-65
2023/01/10 09:30:44;;;;;;;11.23;2.13;;;;;;;;;;4944581;28;20031;-65
2023/01/10 09:33:10;;;;;;;10.40;2.03;;;;;;;;;;4926267;28;20405;-65
2023/01/10 09:35:38;;;;;;;8.85;1.90;;;;;;;;;;4935301;28;20039;-65
2023/01/10 09:38:04;;;;;;;9.48;1.92;;;;;;;;;;4928911;28;20042;-65
2023/01/10 09:40:33;;;;;;;10.13;2.22;;;;;;;;;;4926709;28;20558;-65
2023/01/10 09:43:18;;;;;;;11.07;2.65;;;;;;;;;;4941485;28;20046;-65
2023/01/10 09:45:54;;;;;;;8.18;1.90;;;;;;;;;;4943534;28;20857;-65
2023/01/10 09:48:26;;;;;;;9.98;2.17;;;;;;;;;;4924993;28;20129;-65
2023/01/10 09:50:58;;;;;;;9.13;1.80;;;;;;;;;;4928207;28;20492;-65
2023/01/10 09:53:27;;;;;;;8.95;1.63;;;;;;;;;;4930733;28;20027;-65
2023/01/10 09:55:55;;;;;;;9.05;2.20;;;;;;;;;;4922499;28;20042;-65
2023/01/10 09:58:26;;;;;;;6.95;1.88;;;;;;;;;;4936041;28;20030;-65
2023/01/10 10:01:00;;;;;;;10.35;2.22;;;;;;;;;;4928297;28;20655;-65
2023/01/10 10:03:36;;;;;;;15.68;3.08;;;;;;;;;;4933908;28;20065;-65
2023/01/10 10:06:03;;;;;;;54.15;4.53;;;;;;;;;;4921035;28;20101;-65
2023/01/10 10:08:29;;;;;;;17.33;2.65;;;;;;;;;;4931714;28;20355;-66
2023/01/10 10:11:04;;;;;;;17.70;2.85;;;;;;;;;;4918961;28;20444;-66
2023/01/10 10:13:33;;;;;;;10.75;2.55;;;;;;;;;;4930750;28;20870;-66
2023/01/10 10:16:23;;;;;;;10.93;2.50;;;;;;;;;;4923715;28;20689;-66
2023/01/10 10:19:08;;;;;;;16.30;2.92;;;;;;;;;;4920136;28;20034;-66
2023/01/10 10:21:34;;;;;;;12.10;2.78;;;;;;;;;;4921841;28;20238;-66
2023/01/10 10:24:15;;;;;;;9.05;2.47;;;;;;;;;;4899998;28;20031;-66
2023/01/10 10:26:47;;;;;;;11.95;2.50;;;;;;;;;;4911397;28;20825;-65
2023/01/10 10:29:29;;;;;;;10.55;2.90;;;;;;;;;;4920512;28;20039;-65
2023/01/10 10:32:14;;;;;;;10.45;2.50;;;;;;;;;;4943780;28;20303;-65
2023/01/10 10:34:53;;;;;;;11.48;2.13;;;;;;;;;;4927929;28;20029;-66
2023/01/10 10:37:19;;;;;;;8.50;2.38;;;;;;;;;;4928529;28;20034;-66
2023/01/10 10:39:49;;;;;;;13.00;2.78;;;;;;;;;;4931628;28;20507;-66
2023/01/10 10:42:16;;;;;;;10.18;2.78;;;;;;;;;;4925415;28;20498;-66
2023/01/10 10:45:14;;;;;;;15.80;3.10;;;;;;;;;;4927076;28;20035;-66
2023/01/10 10:47:42;;;;;;;12.13;3.17;;;;;;;;;;4888138;29;20471;-66
2023/01/10 10:50:08;;;;;;;9.95;2.75;;;;;;;;;;4886729;29;20032;-66
2023/01/10 10:52:36;;;;;;;9.70;3.00;;;;;;;;;;4888512;29;20044;-65
2023/01/10 10:55:03;;;;;;;16.05;3.47;;;;;;;;;;4885743;29;20039;-66
2023/01/10 10:57:31;;;;;;;15.73;3.70;;;;;;;;;;4891230;29;20046;-66
2023/01/10 10:59:57;;;;;;;11.48;2.80;;;;;;;;;;4883518;29;20038;-66
2023/01/10 11:02:28;;;;;;;11.93;3.15;;;;;;;;;;4891235;29;20036;-66
2023/01/10 11:04:56;;;;;;;11.20;3.42;;;;;;;;;;4882050;29;20043;-66
2023/01/10 11:07:24;;;;;;;10.45;3.20;;;;;;;;;;4886703;29;20122;-66
2023/01/10 11:09:59;;;;;;;9.82;2.72;;;;;;;;;;4888156;29;20043;-66
2023/01/10 11:12:29;;;;;;;10.82;3.25;;;;;;;;;;4890879;29;20032;-66
2023/01/10 11:14:55;;;;;;;9.07;3.03;;;;;;;;;;4882763;29;20071;-65
2023/01/10 11:17:24;;;;;;;11.55;3.30;;;;;;;;;;4889808;29;20055;-66
2023/01/10 11:20:09;;;;;;;14.05;2.90;;;;;;;;;;4891307;29;20110;-66
2023/01/10 11:22:50;;;;;;;9.68;2.63;;;;;;;;;;4897422;28;20059;-66
2023/01/10 11:25:17;;;;;;;11.65;2.60;;;;;;;;;;4924755;28;20038;-66
2023/01/10 11:27:49;;;;;;;10.27;2.50;;;;;;;;;;4928490;28;20030;-66
2023/01/10 11:30:26;;;;;;;11.68;5.45;;;;;;;;;;4929403;28;20031;-65
2023/01/10 11:32:54;;;;;;;15.35;3.72;;;;;;;;;;4923873;28;20061;-66
2023/01/10 11:35:28;;;;;;;10.20;2.67;;;;;;;;;;4932358;28;20031;-66
2023/01/10 11:38:05;;;;;;;10.70;2.33;;;;;;;;;;4929944;28;20464;-67
2023/01/10 11:40:32;;;;;;;8.75;2.40;;;;;;;;;;4947354;28;20414;-66
2023/01/10 11:42:59;;;;;;;12.10;3.08;;;;;;;;;;4940126;28;20039;-67
2023/01/10 11:45:27;;;;;;;17.77;3.00;;;;;;;;;;4929663;28;20101;-69
2023/01/10 11:48:06;;;;;;;11.48;2.75;;;;;;;;;;4939450;28;20038;-68
2023/01/10 11:50:37;;;;;;;12.73;3.40;;;;;;;;;;4934328;28;20746;-68
2023/01/10 11:53:04;;;;;;;14.90;2.70;;;;;;;;;;4927350;28;20039;-68
2023/01/10 11:55:32;;;;;;;11.85;2.50;;;;;;;;;;4930947;28;20666;-68
2023/01/10 11:57:59;;;;;;;12.88;2.90;;;;;;;;;;4928736;28;20074;-68
2023/01/10 12:00:33;;;;;;;9.90;2.55;;;;;;;;;;4932429;28;20035;-69
2023/01/10 12:03:00;;;;;;;9.60;2.13;;;;;;;;;;4930191;28;20592;-68
2023/01/10 12:05:26;;;;;;;11.68;3.00;;;;;;;;;;4934215;28;20033;-69
2023/01/10 12:07:55;;;;;;;10.45;2.33;;;;;;;;;;4928687;28;20045;-69
2023/01/10 12:10:22;;;;;;;10.07;2.78;;;;;;;;;;4936743;28;20096;-68
2023/01/10 12:12:57;;;;;;;8.65;2.35;;;;;;;;;;4935150;28;20374;-69
2023/01/10 12:15:30;;;;;;;10.40;2.33;;;;;;;;;;4933978;28;20046;-69
2023/01/10 12:18:00;;;;;;;13.95;2.40;;;;;;;;;;4927812;28;20042;-69
2023/01/10 12:20:29;;;;;;;8.43;2.10;;;;;;;;;;4933834;28;20418;-69
2023/01/10 12:23:00;;;;;;;10.63;2.83;;;;;;;;;;4927265;28;20038;-69
2023/01/10 12:25:26;;;;;;;8.30;2.60;;;;;;;;;;4930694;28;20429;-69
2023/01/10 12:27:53;;;;;;;12.82;2.60;;;;;;;;;;4925060;28;20049;-69
2023/01/10 12:30:28;;;;;;;10.15;2.38;;;;;;;;;;4933186;28;20046;-69
2023/01/10 12:32:56;;;;;;;8.43;2.70;;;;;;;;;;4930171;28;20165;-69
2023/01/10 12:35:27;;;;;;;15.60;3.63;;;;;;;;;;4935872;28;20035;-70
2023/01/10 12:37:59;;;;;;;10.50;2.60;;;;;;;;;;4933321;28;20073;-69
2023/01/10 12:40:30;;;;;;;10.20;2.70;;;;;;;;;;4936161;28;20031;-69
2023/01/10 12:45:50;;;;;;;8.93;2.80;;;;;;;;;;4934595;28;20033;-69
2023/01/10 12:48:22;;;;;;;9.60;2.53;;;;;;;;;;4947121;28;20447;-69
2023/01/10 12:50:52;;;;;;;9.18;3.10;;;;;;;;;;4937549;28;20097;-70
2023/01/10 12:53:25;;;;;;;11.15;3.50;;;;;;;;;;4933673;28;20432;-69
2023/01/10 12:55:53;;;;;;;11.98;3.75;;;;;;;;;;4929709;28;20322;-70
2023/01/10 12:58:24;;;;;;;14.48;4.85;;;;;;;;;;4938446;28;20035;-69
2023/01/10 13:00:59;;;;;;;10.55;3.67;;;;;;;;;;4935522;28;20022;-68
2023/01/10 13:03:29;;;;;;;10.90;3.45;;;;;;;;;;4937082;28;20512;-68
2023/01/10 13:05:56;;;;;;;10.38;3.00;;;;;;;;;;4933659;28;20340;-68
2023/01/10 13:08:25;;;;;;;13.70;4.32;;;;;;;;;;4940225;28;20524;-70
2023/01/10 13:10:53;;;;;;;10.70;3.08;;;;;;;;;;4929865;28;20035;-67
2023/01/10 13:13:24;;;;;;;12.63;3.97;;;;;;;;;;4937523;28;20660;-68
2023/01/10 13:16:05;;;;;;;10.35;2.80;;;;;;;;;;4949101;28;20031;-69
2023/01/10 13:18:33;;;;;;;8.88;2.80;;;;;;;;;;4930853;28;20453;-70
2023/01/10 13:21:12;;;;;;;10.88;4.00;;;;;;;;;;4946974;28;20058;-68
2023/01/10 13:23:52;;;;;;;10.13;3.38;;;;;;;;;;4936089;28;20497;-69
2023/01/10 13:26:19;;;;;;;12.57;4.32;;;;;;;;;;4945586;28;20097;-69
2023/01/10 13:28:58;;;;;;;11.63;4.15;;;;;;;;;;4939862;28;20516;-68
2023/01/10 13:31:25;;;;;;;11.02;3.63;;;;;;;;;;4949931;28;21616;-69
2023/01/10 13:33:59;;;;;;;10.68;2.67;;;;;;;;;;4938764;28;20022;-69
2023/01/10 13:36:26;;;;;;;9.60;2.25;;;;;;;;;;4932695;28;20027;-69
2023/01/10 13:38:54;;;;;;;9.60;1.80;;;;;;;;;;4935078;28;20027;-69
2023/01/10 13:44:13;;;;;;;9.93;2.35;;;;;;;;;;4926236;28;20044;-70
2023/01/10 13:46:43;;;;;;;16.23;2.60;;;;;;;;;;4922596;28;20030;-70
2023/01/10 13:49:09;;;;;;;8.10;1.75;;;;;;;;;;4931859;28;20125;-70
2023/01/10 13:51:36;;;;;;;8.32;1.73;;;;;;;;;;4928109;28;20030;-68
2023/01/10 13:54:03;;;;;;;12.65;2.20;;;;;;;;;;4932183;28;20037;-69
2023/01/10 13:56:40;;;;;;;9.68;1.85;;;;;;;;;;4927531;28;20061;-69
2023/01/10 14:02:30;;;;;;;8.60;1.98;;;;;;;;;;4931071;28;20113;-69
2023/01/10 14:04:58;;;;;;;8.77;2.22;;;;;;;;;;4932919;28;20037;-70
2023/01/10 14:07:31;;;;;;;10.45;2.08;;;;;;;;;;4937436;28;20031;-69
2023/01/10 14:10:00;;;;;;;6.30;1.50;;;;;;;;;;4929855;28;20372;-69
2023/01/10 14:12:40;;;;;;;8.35;2.50;;;;;;;;;;4949679;28;20544;-68
2023/01/10 14:15:38;;;;;;;8.90;2.58;;;;;;;;;;4931470;28;20545;-71
2023/01/10 14:18:06;;;;;;;8.15;2.33;;;;;;;;;;4888952;29;20058;-69
2023/01/10 14:20:33;;;;;;;7.32;2.25;;;;;;;;;;4890796;29;20047;-69
2023/01/10 14:23:04;;;;;;;12.32;5.45;;;;;;;;;;4888444;29;20032;-69
2023/01/10 14:25:32;;;;;;;12.95;5.70;;;;;;;;;;4886782;29;20135;-69
2023/01/10 14:27:59;;;;;;;13.80;4.35;;;;;;;;;;4874857;29;20047;-68
2023/01/10 14:30:25;;;;;;;10.23;3.65;;;;;;;;;;4878950;29;20031;-70
2023/01/10 14:32:52;;;;;;;10.95;3.97;;;;;;;;;;4880797;29;20036;-70
2023/01/10 14:35:22;;;;;;;9.18;3.22;;;;;;;;;;4878703;29;20538;-70
2023/01/10 14:37:58;;;;;;;10.07;2.80;;;;;;;;;;4893311;29;20114;-70
2023/01/10 14:40:29;;;;;;;8.75;3.00;;;;;;;;;;4882614;29;20044;-68
2023/01/10 14:42:58;;;;;;;10.90;2.75;;;;;;;;;;4883232;29;20111;-67
2023/01/10 14:45:31;;;;;;;8.07;2.35;;;;;;;;;;4890709;29;20172;-70
2023/01/10 14:47:57;;;;;;;10.15;2.60;;;;;;;;;;4884982;29;20048;-70
2023/01/10 14:50:31;;;;;;;11.48;3.10;;;;;;;;;;4896667;29;20142;-68
2023/01/10 14:52:59;;;;;;;7.78;2.50;;;;;;;;;;4899216;28;20157;-70
2023/01/10 14:55:26;;;;;;;11.57;3.95;;;;;;;;;;4935782;28;20134;-69
2023/01/10 14:57:54;;;;;;;7.55;2.25;;;;;;;;;;4929989;28;21049;-69
2023/01/10 15:00:24;;;;;;;10.63;2.78;;;;;;;;;;4937476;28;20039;-69
2023/01/10 15:02:50;;;;;;;6.43;1.73;;;;;;;;;;4936209;28;20406;-69
2023/01/10 15:05:19;;;;;;;7.00;1.80;;;;;;;;;;4939325;28;21500;-69
2023/01/10 15:07:45;;;;;;;9.18;3.80;;;;;;;;;;4935493;28;20820;-69
2023/01/10 15:10:21;;;;;;;8.30;2.50;;;;;;;;;;4932438;28;20499;-69